createdAt,value
2022-08-07T00:02:41.180Z,1.25
2022-08-07T00:05:03.915Z,0.80
2022-08-07T00:07:40.303Z,1.10
2022-08-07T00:10:26.107Z,0.80
2022-08-07T00:12:59.853Z,0.93
2022-08-07T00:15:38.619Z,0.80
2022-08-07T00:18:19.257Z,0.60
2022-08-07T00:20:50.428Z,0.70
2022-08-07T00:23:21.344Z,0.70
2022-08-07T00:25:52.085Z,1.05
2022-08-07T00:28:33.254Z,0.88
2022-08-07T00:31:06.238Z,0.80
2022-08-07T00:33:37.061Z,1.45
2022-08-07T00:36:07.963Z,0.80
2022-08-07T00:38:39.093Z,0.70
2022-08-07T00:41:09.920Z,0.90
2022-08-07T00:43:58.998Z,0.80
2022-08-07T00:46:28.761Z,0.80
2022-08-07T00:48:57.385Z,0.70
2022-08-07T00:51:57.318Z,0.82
2022-08-07T00:54:20.822Z,1.00
2022-08-07T00:56:51.976Z,0.80
2022-08-07T00:59:35.253Z,1.02
2022-08-07T01:02:14.006Z,0.70
2022-08-07T01:04:58.297Z,0.70
2022-08-07T01:07:29.232Z,0.90
2022-08-07T01:10:06.300Z,1.20
2022-08-07T01:12:53.447Z,0.70
2022-08-07T01:16:00.619Z,0.60
2022-08-07T01:18:16.608Z,0.80
2022-08-07T01:20:57.404Z,0.65
2022-08-07T01:23:36.793Z,0.80
2022-08-07T01:26:14.421Z,0.80
2022-08-07T01:28:48.350Z,0.70
2022-08-07T01:31:22.927Z,0.90
2022-08-07T01:33:55.779Z,0.95
2022-08-07T01:36:33.355Z,0.95
2022-08-07T01:39:04.197Z,0.90
2022-08-07T01:41:54.996Z,1.20
2022-08-07T01:44:29.280Z,0.90
2022-08-07T01:47:01.174Z,1.10
2022-08-07T01:49:46.174Z,1.10
2022-08-07T01:52:25.480Z,1.20
2022-08-07T01:54:58.909Z,1.10
2022-08-07T01:57:34.017Z,1.23
2022-08-07T02:00:20.205Z,1.17
2022-08-07T02:03:18.835Z,1.38
2022-08-07T02:05:59.731Z,1.10
2022-08-07T02:08:30.649Z,1.08
2022-08-07T02:11:03.579Z,1.10
2022-08-07T02:13:56.698Z,1.10
2022-08-07T02:16:28.649Z,0.90
2022-08-07T02:20:07.591Z,1.08
2022-08-07T02:21:58.891Z,1.00
2022-08-07T02:24:30.269Z,1.08
2022-08-07T02:27:02.990Z,1.27
2022-08-07T02:32:03.287Z,1.45
2022-08-07T02:34:33.938Z,1.50
2022-08-07T02:37:08.267Z,1.05
2022-08-07T02:40:02.256Z,1.00
2022-08-07T02:42:34.561Z,2.08
2022-08-07T02:46:00.814Z,1.90
2022-08-07T02:47:57.253Z,1.88
2022-08-07T02:50:30.769Z,1.80
2022-08-07T02:53:10.965Z,1.58
2022-08-07T02:56:03.472Z,1.83
2022-08-07T02:58:34.862Z,1.90
2022-08-07T03:01:05.372Z,2.42
2022-08-07T03:03:50.062Z,2.22
2022-08-07T03:06:25.844Z,2.13
2022-08-07T03:09:06.100Z,2.22
2022-08-07T03:14:08.366Z,2.50
2022-08-07T03:16:38.372Z,2.67
2022-08-07T03:19:08.267Z,2.90
2022-08-07T03:21:37.209Z,2.95
2022-08-07T03:24:19.307Z,3.28
2022-08-07T03:26:58.323Z,2.95
2022-08-07T03:29:44.659Z,3.00
2022-08-07T03:32:22.781Z,2.88
2022-08-07T03:35:16.608Z,3.03
2022-08-07T03:37:55.255Z,3.25
2022-08-07T03:40:27.554Z,3.28
2022-08-07T03:43:01.257Z,3.28
2022-08-07T03:45:31.957Z,4.55
2022-08-07T03:48:01.401Z,3.30
2022-08-07T03:50:30.668Z,3.22
2022-08-07T03:53:01.394Z,3.78
2022-08-07T03:55:53.076Z,4.28
2022-08-07T03:59:05.300Z,4.40
2022-08-07T04:01:13.798Z,3.63
2022-08-07T04:03:53.936Z,3.53
2022-08-07T04:06:37.118Z,3.50
2022-08-07T04:09:15.236Z,3.60
2022-08-07T04:12:26.215Z,4.00
2022-08-07T04:14:43.810Z,4.25
2022-08-07T04:17:20.175Z,4.32
2022-08-07T04:19:54.871Z,4.80
2022-08-07T04:22:28.457Z,4.55
2022-08-07T04:25:02.076Z,4.47
2022-08-07T04:30:35.420Z,4.47
2022-08-07T04:32:58.838Z,3.85
2022-08-07T04:35:28.648Z,5.22
2022-08-07T04:38:13.447Z,2.28
2022-08-07T04:40:52.680Z,2.65
2022-08-07T04:44:13.062Z,1.80
2022-08-07T04:47:04.958Z,2.00
2022-08-07T04:50:06.279Z,2.10
2022-08-07T04:53:40.193Z,2.53
2022-08-07T04:58:14.420Z,2.10
2022-08-07T05:00:14.616Z,2.13
2022-08-07T05:02:33.645Z,2.70
2022-08-07T05:05:51.541Z,2.28
2022-08-07T05:08:14.132Z,2.25
2022-08-07T05:10:48.851Z,2.30
2022-08-07T05:14:55.703Z,2.23
2022-08-07T05:16:22.954Z,2.60
2022-08-07T05:19:00.575Z,2.60
2022-08-07T05:21:59.365Z,3.08
2022-08-07T05:24:24.635Z,3.55
2022-08-07T05:27:01.446Z,3.33
2022-08-07T05:29:41.091Z,2.60
2022-08-07T05:32:26.172Z,2.88
2022-08-07T05:34:55.961Z,3.42
2022-08-07T05:37:25.718Z,2.63
2022-08-07T05:40:06.423Z,2.10
2022-08-07T05:42:56.355Z,2.33
2022-08-07T05:45:47.118Z,2.78
2022-08-07T05:48:16.607Z,2.83
2022-08-07T05:50:46.536Z,2.05
2022-08-07T05:54:12.564Z,2.03
2022-08-07T05:56:06.912Z,2.08
2022-08-07T05:58:39.229Z,2.00
2022-08-07T06:01:10.997Z,2.33
2022-08-07T06:03:53.488Z,1.85
2022-08-07T06:06:29.832Z,1.63
2022-08-07T06:09:04.567Z,1.48
2022-08-07T06:11:35.734Z,1.80
2022-08-07T06:14:12.684Z,1.90
2022-08-07T06:16:56.301Z,1.73
2022-08-07T06:19:52.070Z,1.73
2022-08-07T06:22:23.526Z,1.77
2022-08-07T06:24:58.445Z,1.77
2022-08-07T06:27:54.408Z,1.70
2022-08-07T06:30:32.478Z,1.70
2022-08-07T06:33:12.648Z,1.25
2022-08-07T06:36:06.227Z,1.60
2022-08-07T06:38:34.984Z,2.42
2022-08-07T06:41:09.608Z,1.70
2022-08-07T06:43:46.153Z,1.80
2022-08-07T06:46:20.458Z,1.80
2022-08-07T06:49:00.413Z,1.98
2022-08-07T06:55:27.407Z,2.20
2022-08-07T06:56:57.352Z,1.90
2022-08-07T07:00:14.211Z,2.55
2022-08-07T07:02:48.656Z,2.33
2022-08-07T07:05:12.683Z,2.20
2022-08-07T07:07:59.336Z,1.98
2022-08-07T07:10:35.788Z,2.00
2022-08-07T07:13:41.647Z,1.70
2022-08-07T07:16:23.506Z,1.85
2022-08-07T07:19:40.930Z,2.25
2022-08-07T07:22:12.035Z,1.75
2022-08-07T07:25:03.126Z,1.85
2022-08-07T07:27:55.592Z,1.83
2022-08-07T07:30:40.121Z,1.55
2022-08-07T07:33:12.558Z,1.85
2022-08-07T07:35:54.678Z,1.77
2022-08-07T07:38:36.101Z,1.90
2022-08-07T07:41:08.546Z,1.75
2022-08-07T07:46:38.577Z,1.70
2022-08-07T07:50:32.963Z,1.60
2022-08-07T07:52:15.902Z,1.45
2022-08-07T07:54:50.750Z,1.80
2022-08-07T07:57:43.660Z,1.55
2022-08-07T08:00:20.862Z,1.80
2022-08-07T08:04:05.955Z,1.70
2022-08-07T08:06:11.542Z,1.75
2022-08-07T08:11:16.657Z,1.60
2022-08-07T08:13:53.867Z,1.60
2022-08-07T08:16:50.207Z,1.60
2022-08-07T08:20:17.569Z,1.73
2022-08-07T08:22:54.388Z,1.60
2022-08-07T08:25:49.227Z,1.50
2022-08-07T08:28:38.112Z,1.70
2022-08-07T08:31:16.019Z,1.70
2022-08-07T08:33:55.519Z,1.83
2022-08-07T08:36:30.054Z,1.75
2022-08-07T08:39:04.066Z,1.77
2022-08-07T08:42:01.351Z,1.65
2022-08-07T08:44:44.374Z,1.60
2022-08-07T08:47:47.308Z,1.80
2022-08-07T08:50:39.666Z,1.67
2022-08-07T08:53:40.428Z,1.92
2022-08-07T08:56:17.466Z,1.60
2022-08-07T08:59:06.423Z,1.65
2022-08-07T09:01:52.478Z,2.28
2022-08-07T09:04:51.492Z,1.90
2022-08-07T09:07:26.299Z,2.15
2022-08-07T09:10:08.962Z,2.15
2022-08-07T09:13:01.343Z,2.10
2022-08-07T09:16:20.586Z,2.40
2022-08-07T09:19:07.283Z,2.25
2022-08-07T09:24:29.214Z,2.20
2022-08-07T09:25:14.889Z,2.42
2022-08-07T09:30:06.178Z,2.17
2022-08-07T09:31:26.928Z,2.50
2022-08-07T09:34:41.724Z,2.13
2022-08-07T09:37:47.956Z,2.17
2022-08-07T09:40:18.345Z,2.33
2022-08-07T09:42:57.045Z,2.50
2022-08-07T09:47:24.304Z,2.50
2022-08-07T09:50:00.616Z,2.20
2022-08-07T09:52:34.228Z,2.03
2022-08-07T09:55:36.858Z,1.90
2022-08-07T09:58:48.829Z,2.40
2022-08-07T10:01:53.209Z,2.28
2022-08-07T10:04:52.792Z,2.50
2022-08-07T10:07:39.942Z,2.35
2022-08-07T10:14:23.113Z,2.10
2022-08-07T10:18:00.436Z,2.50
2022-08-07T10:20:34.318Z,2.58
2022-08-07T10:24:05.955Z,2.33
2022-08-07T10:26:34.153Z,2.25
2022-08-07T10:29:21.536Z,2.55
2022-08-07T10:32:36.804Z,2.45
2022-08-07T10:35:53.440Z,2.60
2022-08-07T10:38:46.427Z,2.47
2022-08-07T10:41:52.368Z,2.20
2022-08-07T10:44:38.686Z,2.28
2022-08-07T10:47:27.107Z,2.30
2022-08-07T10:50:31.210Z,2.25
2022-08-07T10:53:11.527Z,2.70
2022-08-07T10:56:21.016Z,2.40
2022-08-07T10:59:22.190Z,2.53
2022-08-07T11:02:05.110Z,2.40
2022-08-07T11:05:08.565Z,2.20
2022-08-07T11:07:58.582Z,2.30
2022-08-07T11:11:07.705Z,2.70
2022-08-07T11:14:44.240Z,2.88
2022-08-07T11:17:01.884Z,2.28
2022-08-07T11:19:39.012Z,2.85
2022-08-07T11:22:18.837Z,2.00
2022-08-07T11:25:06.511Z,2.47
2022-08-07T11:28:02.450Z,2.10
2022-08-07T11:30:44.751Z,2.10
2022-08-07T11:33:59.311Z,2.17
2022-08-07T11:36:44.985Z,2.20
2022-08-07T11:40:00.535Z,2.20
2022-08-07T11:43:09.019Z,2.40
2022-08-07T11:46:11.684Z,1.92
2022-08-07T11:49:50.112Z,2.10
2022-08-07T11:52:37.694Z,1.95
2022-08-07T11:56:25.484Z,2.40
2022-08-07T11:58:49.690Z,2.30
2022-08-07T12:01:59.756Z,2.00
2022-08-07T12:04:32.516Z,2.20
2022-08-07T12:07:09.059Z,2.08
2022-08-07T12:09:57.455Z,1.92
2022-08-07T12:12:45.390Z,1.90
2022-08-07T12:16:05.294Z,2.15
2022-08-07T12:18:46.224Z,1.73
2022-08-07T12:22:38.121Z,1.80
2022-08-07T12:26:23.083Z,2.08
2022-08-07T12:28:31.060Z,1.77
2022-08-07T12:31:10.981Z,1.70
2022-08-07T12:33:56.058Z,1.70
2022-08-07T12:36:32.764Z,1.80
2022-08-07T12:39:09.339Z,1.95
2022-08-07T12:41:56.743Z,1.60
2022-08-07T12:44:29.489Z,1.33
2022-08-07T12:47:21.752Z,1.85
2022-08-07T12:50:39.427Z,1.50
2022-08-07T12:53:27.505Z,1.77
2022-08-07T12:56:17.995Z,1.50
2022-08-07T12:58:53.150Z,1.50
2022-08-07T13:01:32.454Z,1.60
2022-08-07T13:04:34.536Z,1.63
2022-08-07T13:08:14.485Z,1.40
2022-08-07T13:10:39.575Z,1.35
2022-08-07T13:13:47.408Z,1.60
2022-08-07T13:16:50.721Z,1.40
2022-08-07T13:19:50.252Z,1.40
2022-08-07T13:22:33.427Z,1.23
2022-08-07T13:25:29.116Z,1.20
2022-08-07T13:28:18.455Z,1.48
2022-08-07T13:31:01.965Z,1.30
2022-08-07T13:34:31.338Z,1.20
2022-08-07T13:36:52.462Z,1.10
2022-08-07T13:40:34.047Z,1.40
2022-08-07T13:42:27.067Z,1.40
2022-08-07T13:45:20.916Z,1.20
2022-08-07T13:48:06.076Z,1.40
2022-08-07T13:50:44.794Z,1.13
2022-08-07T13:53:35.928Z,1.20
2022-08-07T13:56:35.624Z,1.27
2022-08-07T13:59:21.671Z,1.27
2022-08-07T14:02:04.069Z,1.20
2022-08-07T14:04:47.455Z,1.00
2022-08-07T14:07:23.084Z,1.85
2022-08-07T14:10:17.639Z,1.48
2022-08-07T14:13:09.203Z,2.40
2022-08-07T14:15:41.124Z,1.80
2022-08-07T14:18:30.734Z,1.58
2022-08-07T14:21:08.358Z,1.30
2022-08-07T14:24:10.981Z,2.22
2022-08-07T14:28:09.295Z,1.23
2022-08-07T14:30:11.125Z,1.00
2022-08-07T14:32:53.305Z,1.23
2022-08-07T14:35:45.665Z,1.00
2022-08-07T14:38:26.247Z,0.90
2022-08-07T14:41:14.976Z,0.90
2022-08-07T14:43:57.987Z,0.80
2022-08-07T14:46:37.393Z,1.20
2022-08-07T14:52:16.819Z,0.90
2022-08-07T14:54:46.833Z,0.80
2022-08-07T14:57:54.373Z,1.42
2022-08-07T15:00:20.491Z,0.90
2022-08-07T15:03:18.834Z,0.88
2022-08-07T15:05:54.335Z,0.90
2022-08-07T15:08:47.455Z,1.20
2022-08-07T15:11:54.153Z,0.90
2022-08-07T15:14:18.887Z,0.95
2022-08-07T15:16:54.482Z,1.23
2022-08-07T15:20:31.586Z,0.80
2022-08-07T15:22:23.076Z,0.70
2022-08-07T15:33:43.941Z,0.90
2022-08-07T15:36:14.353Z,1.15
2022-08-07T15:39:10.563Z,0.90
2022-08-07T15:44:53.200Z,0.75
2022-08-07T15:48:00.049Z,0.70
2022-08-07T15:50:37.725Z,0.85
2022-08-07T15:53:14.880Z,0.70
2022-08-07T15:56:02.724Z,0.95
2022-08-07T15:58:40.679Z,0.60
2022-08-07T16:01:38.452Z,0.70
2022-08-07T16:04:15.459Z,0.85
2022-08-07T16:06:54.723Z,0.93
2022-08-07T16:09:51.324Z,0.60
2022-08-07T16:12:39.148Z,1.00
2022-08-07T16:15:54.555Z,0.70
2022-08-07T16:18:53.748Z,0.73
2022-08-07T16:22:01.544Z,0.70
2022-08-07T16:25:04.809Z,0.80
2022-08-07T16:27:46.612Z,0.80
2022-08-07T16:30:31.485Z,0.70
2022-08-07T16:34:01.723Z,0.70
2022-08-07T16:36:19.771Z,0.90
2022-08-07T16:39:40.334Z,0.70
2022-08-07T16:42:46.703Z,0.90
2022-08-07T16:46:33.731Z,0.80
2022-08-07T16:48:58.430Z,1.00
2022-08-07T16:52:50.926Z,0.68
2022-08-07T16:55:28.807Z,0.70
2022-08-07T16:58:54.377Z,0.93
2022-08-07T17:01:21.143Z,0.80
2022-08-07T17:04:25.129Z,0.80
2022-08-07T17:10:06.683Z,0.80
2022-08-07T17:12:45.442Z,0.77
2022-08-07T17:15:44.538Z,1.00
2022-08-07T17:18:51.308Z,0.70
2022-08-07T17:21:51.465Z,0.88
2022-08-07T17:24:48.754Z,0.88
2022-08-07T17:27:37.023Z,0.80
2022-08-07T17:30:20.487Z,0.95
2022-08-07T17:34:09.428Z,0.93
2022-08-07T17:36:20.378Z,0.85
2022-08-07T17:38:50.263Z,0.90
2022-08-07T17:42:04.913Z,0.90
2022-08-07T17:44:58.433Z,1.10
2022-08-07T17:47:53.941Z,0.80
2022-08-07T17:50:47.317Z,0.90
2022-08-07T17:54:00.795Z,1.00
2022-08-07T17:56:49.353Z,0.80
2022-08-07T17:59:27.140Z,0.90
2022-08-07T18:02:23.359Z,0.80
2022-08-07T18:05:20.828Z,0.80
2022-08-07T18:08:24.133Z,0.70
2022-08-07T18:11:53.934Z,1.05
2022-08-07T18:14:29.104Z,0.85
2022-08-07T18:18:39.714Z,0.80
2022-08-07T18:21:05.947Z,0.70
2022-08-07T18:23:21.851Z,0.75
2022-08-07T18:26:14.813Z,1.40
2022-08-07T18:28:58.199Z,0.93
2022-08-07T18:31:51.872Z,1.00
2022-08-07T18:35:01.134Z,0.60
2022-08-07T18:38:57.757Z,0.80
2022-08-07T18:40:53.483Z,0.82
2022-08-07T18:43:57.815Z,0.70
2022-08-07T18:47:00.012Z,0.70
2022-08-07T18:50:39.174Z,0.73
2022-08-07T18:53:16.458Z,0.80
2022-08-07T18:56:31.561Z,0.80
2022-08-07T18:59:46.765Z,0.85
2022-08-07T19:02:43.122Z,0.90
2022-08-07T19:06:04.028Z,0.75
2022-08-07T19:09:09.097Z,0.70
2022-08-07T19:12:05.776Z,1.05
2022-08-07T19:16:03.646Z,0.68
2022-08-07T19:18:33.999Z,1.00
2022-08-07T19:21:13.964Z,0.80
2022-08-07T19:24:02.026Z,0.93
2022-08-07T19:27:09.102Z,0.80
2022-08-07T19:30:55.426Z,0.80
2022-08-07T19:32:42.322Z,0.70
2022-08-07T19:35:22.564Z,1.00
2022-08-07T19:38:00.886Z,0.73
2022-08-07T19:40:38.181Z,1.00
2022-08-07T19:43:48.938Z,0.70
2022-08-07T19:46:15.746Z,1.30
2022-08-07T19:48:53.482Z,0.70
2022-08-07T19:51:52.323Z,0.77
2022-08-07T19:54:33.178Z,0.82
2022-08-07T19:58:01.974Z,0.77
2022-08-07T20:00:10.148Z,0.80
2022-08-07T20:02:52.001Z,1.10
2022-08-07T20:05:28.676Z,3.65
2022-08-07T20:08:06.695Z,0.70
2022-08-07T20:10:55.031Z,0.70
2022-08-07T20:13:46.472Z,0.82
2022-08-07T20:16:36.982Z,0.70
2022-08-07T20:19:09.969Z,0.70
2022-08-07T20:21:47.141Z,0.93
2022-08-07T20:24:35.630Z,0.75
2022-08-07T20:27:11.672Z,1.10
2022-08-07T20:29:56.743Z,0.80
2022-08-07T20:32:49.748Z,0.70
2022-08-07T20:35:27.099Z,0.90
2022-08-07T20:38:00.866Z,0.70
2022-08-07T20:40:34.898Z,0.70
2022-08-07T20:43:14.507Z,0.90
2022-08-07T20:46:29.107Z,0.70
2022-08-07T20:48:58.178Z,0.73
2022-08-07T20:51:40.572Z,0.70
2022-08-07T20:54:30.272Z,0.75
2022-08-07T20:57:10.397Z,0.90
2022-08-07T21:00:05.675Z,0.80
2022-08-07T21:02:53.836Z,0.90
2022-08-07T21:05:42.963Z,0.77
2022-08-07T21:08:20.717Z,0.70
2022-08-07T21:11:10.468Z,0.80
2022-08-07T21:13:43.700Z,0.80
2022-08-07T21:16:31.857Z,1.00
2022-08-07T21:19:01.655Z,0.80
2022-08-07T21:21:49.314Z,0.70
2022-08-07T21:24:48.016Z,0.80
2022-08-07T21:27:40.157Z,0.88
2022-08-07T21:30:19.125Z,0.73
2022-08-07T21:36:06.595Z,0.70
2022-08-07T21:38:50.364Z,0.70
2022-08-07T21:41:38.427Z,0.60
2022-08-07T21:44:25.382Z,0.80
2022-08-07T21:47:17.378Z,0.73
2022-08-07T21:50:05.035Z,0.90
2022-08-07T21:52:49.550Z,0.70
2022-08-07T21:55:30.158Z,1.10
2022-08-07T21:58:32.810Z,0.90
2022-08-07T22:01:14.479Z,0.85
2022-08-07T22:03:56.382Z,0.80
2022-08-07T22:06:34.847Z,0.80
2022-08-07T22:09:12.797Z,0.60
2022-08-07T22:12:05.685Z,0.68
2022-08-07T22:17:38.028Z,0.60
2022-08-07T22:20:36.180Z,0.75
2022-08-07T22:23:42.306Z,0.70
2022-08-07T22:26:22.705Z,0.70
2022-08-07T22:29:33.911Z,0.60
2022-08-07T22:32:23.361Z,0.60
2022-08-07T22:35:02.962Z,0.70
2022-08-07T22:38:01.803Z,0.80
2022-08-07T22:40:52.376Z,0.98
2022-08-07T22:43:38.399Z,1.17
2022-08-07T22:47:02.266Z,0.70
2022-08-07T22:49:54.077Z,0.90
2022-08-07T22:52:57.710Z,0.50
2022-08-07T22:56:08.579Z,0.80
2022-08-07T22:59:14.355Z,0.63
2022-08-07T23:02:27.487Z,0.70
2022-08-07T23:06:08.527Z,0.70
2022-08-07T23:08:23.870Z,0.82
2022-08-07T23:11:41.304Z,0.65
2022-08-07T23:14:30.518Z,0.90
2022-08-07T23:17:20.999Z,1.00
2022-08-07T23:20:51.419Z,0.60
2022-08-07T23:24:06.156Z,0.65
2022-08-07T23:26:28.728Z,0.68
2022-08-07T23:29:42.627Z,0.88
2022-08-07T23:34:19.444Z,0.70
2022-08-07T23:35:37.601Z,0.80
2022-08-07T23:38:19.435Z,1.08
2022-08-07T23:41:14.597Z,0.80
2022-08-07T23:44:05.364Z,2.58
2022-08-07T23:46:52.810Z,4.30
2022-08-07T23:49:54.887Z,0.93
2022-08-07T23:53:08.780Z,1.13
2022-08-07T23:55:55.467Z,0.75
